createdAt,value
2022-09-10T00:02:02.968Z,100249.41
2022-09-10T00:04:30.581Z,100244.28
2022-09-10T00:06:57.615Z,100236.63
2022-09-10T00:09:24.790Z,100242.19
2022-09-10T00:11:51.931Z,100244.25
2022-09-10T00:14:22.727Z,100240.94
2022-09-10T00:16:50.316Z,100239.50
2022-09-10T00:19:18.481Z,100246.16
2022-09-10T00:21:45.586Z,100229.38
2022-09-10T00:24:12.929Z,100254.00
2022-09-10T00:26:40.465Z,100255.44
2022-09-10T00:29:12.715Z,100244.06
2022-09-10T00:31:40.091Z,100262.28
2022-09-10T00:34:07.455Z,100247.81
2022-09-10T00:36:39.796Z,100248.03
2022-09-10T00:39:18.532Z,100239.13
2022-09-10T00:41:48.070Z,100257.75
2022-09-10T00:44:37.482Z,100252.97
2022-09-10T00:47:12.885Z,100258.38
2022-09-10T00:49:44.300Z,100256.28
2022-09-10T00:52:12.450Z,100260.63
2022-09-10T00:54:42.559Z,100267.66
2022-09-10T00:57:17.469Z,100256.09
2022-09-10T00:59:50.380Z,100253.59
2022-09-10T01:02:17.418Z,100251.75
2022-09-10T01:04:45.744Z,100254.44
2022-09-10T01:07:14.614Z,100258.59
2022-09-10T01:09:43.193Z,100257.97
2022-09-10T01:12:36.558Z,100266.44
2022-09-10T01:15:29.148Z,100256.09
2022-09-10T01:18:03.590Z,100257.94
2022-09-10T01:20:53.816Z,100266.00
2022-09-10T01:23:58.267Z,100263.13
2022-09-10T01:26:34.568Z,100261.47
2022-09-10T01:29:12.817Z,100281.13
2022-09-10T01:31:52.110Z,100270.78
2022-09-10T01:34:46.356Z,100268.50
2022-09-10T01:37:29.180Z,100263.94
2022-09-10T01:39:59.288Z,100274.50
2022-09-10T01:42:28.532Z,100269.97
2022-09-10T01:44:58.035Z,100268.91
2022-09-10T01:48:09.741Z,100270.56
2022-09-10T01:51:26.093Z,100268.09
2022-09-10T01:54:01.937Z,100273.06
2022-09-10T01:56:43.885Z,100267.88
2022-09-10T01:59:23.525Z,100280.72
2022-09-10T02:01:59.890Z,100262.50
2022-09-10T02:04:30.006Z,100273.44
2022-09-10T02:06:57.615Z,100259.19
2022-09-10T02:09:24.922Z,100272.63
2022-09-10T02:11:54.517Z,100264.13
2022-09-10T02:14:34.235Z,100267.25
2022-09-10T02:17:12.141Z,100277.38
2022-09-10T02:19:39.208Z,100257.72
2022-09-10T02:22:06.294Z,100274.47
2022-09-10T02:24:33.342Z,100258.75
2022-09-10T02:27:00.824Z,100267.84
2022-09-10T02:29:28.909Z,100261.84
2022-09-10T02:31:55.931Z,100256.06
2022-09-10T02:34:23.254Z,100258.53
2022-09-10T02:36:50.356Z,100255.41
2022-09-10T02:39:17.381Z,100256.25
2022-09-10T02:41:45.640Z,100266.16
2022-09-10T02:44:12.828Z,100258.50
2022-09-10T02:46:40.252Z,100264.72
2022-09-10T02:49:09.267Z,100256.03
2022-09-10T02:51:38.886Z,100250.84
2022-09-10T02:54:07.088Z,100254.38
2022-09-10T02:56:34.731Z,100263.47
2022-09-10T02:59:01.711Z,100263.06
2022-09-10T03:01:29.651Z,100250.66
2022-09-10T03:04:01.225Z,100265.53
2022-09-10T03:06:30.173Z,100255.19
2022-09-10T03:08:58.530Z,100257.66
2022-09-10T03:11:27.714Z,100263.25
2022-09-10T03:13:56.241Z,100261.81
2022-09-10T03:16:24.496Z,100258.31
2022-09-10T03:18:52.480Z,100269.09
2022-09-10T03:21:22.466Z,100265.38
2022-09-10T03:23:52.909Z,100257.09
2022-09-10T03:26:27.706Z,100257.31
2022-09-10T03:28:55.070Z,100255.66
2022-09-10T03:31:25.032Z,100268.91
2022-09-10T03:33:52.082Z,100261.91
2022-09-10T03:36:22.731Z,100269.34
2022-09-10T03:38:50.351Z,100262.50
2022-09-10T03:41:17.886Z,100259.00
2022-09-10T03:43:45.994Z,100268.91
2022-09-10T03:46:13.278Z,100269.75
2022-09-10T03:48:45.776Z,100269.13
2022-09-10T03:51:13.182Z,100269.75
2022-09-10T03:53:41.014Z,100263.13
2022-09-10T03:56:11.295Z,100278.44
2022-09-10T03:58:39.650Z,100259.19
2022-09-10T04:01:08.958Z,100261.84
2022-09-10T04:03:38.890Z,100268.91
2022-09-10T04:06:10.495Z,100268.69
2022-09-10T04:08:38.139Z,100279.03
2022-09-10T04:11:08.110Z,100276.31
2022-09-10T04:13:35.154Z,100267.78
2022-09-10T04:16:03.028Z,100264.03
2022-09-10T04:18:34.582Z,100267.34
2022-09-10T04:21:03.367Z,100265.00
2022-09-10T04:23:31.083Z,100281.13
2022-09-10T04:25:58.059Z,100268.66
2022-09-10T04:28:28.672Z,100282.13
2022-09-10T04:30:56.936Z,100275.06
2022-09-10T04:33:25.595Z,100272.75
2022-09-10T04:36:00.596Z,100275.78
2022-09-10T04:38:32.372Z,100272.25
2022-09-10T04:41:03.411Z,100275.56
2022-09-10T04:43:30.458Z,100277.50
2022-09-10T04:45:59.885Z,100270.06
2022-09-10T04:48:27.265Z,100278.69
2022-09-10T04:51:15.256Z,100281.06
2022-09-10T04:53:45.959Z,100280.34
2022-09-10T04:56:13.850Z,100271.16
2022-09-10T04:58:41.900Z,100285.34
2022-09-10T05:01:09.518Z,100275.53
2022-09-10T05:03:37.313Z,100280.84
2022-09-10T05:06:09.378Z,100270.78
2022-09-10T05:08:36.937Z,100266.97
2022-09-10T05:11:05.497Z,100281.38
2022-09-10T05:13:33.554Z,100267.34
2022-09-10T05:16:01.760Z,100264.88
2022-09-10T05:18:31.436Z,100283.38
2022-09-10T05:20:58.619Z,100272.56
2022-09-10T05:23:27.371Z,100280.50
2022-09-10T05:25:59.462Z,100284.56
2022-09-10T05:28:27.367Z,100282.22
2022-09-10T05:30:55.572Z,100286.84
2022-09-10T05:33:24.681Z,100294.63
2022-09-10T05:35:51.923Z,100289.38
2022-09-10T05:38:20.707Z,100285.47
2022-09-10T05:40:48.738Z,100285.44
2022-09-10T05:43:15.691Z,100294.03
2022-09-10T05:45:44.592Z,100291.84
2022-09-10T05:48:11.611Z,100301.97
2022-09-10T05:50:41.886Z,100286.81
2022-09-10T05:53:12.493Z,100286.09
2022-09-10T05:55:39.727Z,100273.75
2022-09-10T05:58:07.519Z,100284.50
2022-09-10T06:00:37.046Z,100280.94
2022-09-10T06:03:05.553Z,100290.38
2022-09-10T06:05:41.668Z,100278.03
2022-09-10T06:08:10.033Z,100277.31
2022-09-10T06:10:43.335Z,100294.88
2022-09-10T06:13:11.632Z,100283.91
2022-09-10T06:15:42.222Z,100289.81
2022-09-10T06:18:09.836Z,100279.06
2022-09-10T06:20:37.759Z,100283.22
2022-09-10T06:23:06.970Z,100271.91
2022-09-10T06:25:34.050Z,100281.91
2022-09-10T06:28:02.294Z,100275.16
2022-09-10T06:30:29.647Z,100277.41
2022-09-10T06:32:57.338Z,100268.69
2022-09-10T06:35:25.567Z,100276.72
2022-09-10T06:37:54.726Z,100275.97
2022-09-10T06:40:22.170Z,100279.72
2022-09-10T06:42:49.503Z,100280.88
2022-09-10T06:45:19.566Z,100284.88
2022-09-10T06:48:37.208Z,100267.88
2022-09-10T06:50:53.485Z,100265.75
2022-09-10T06:53:24.489Z,100275.88
2022-09-10T06:56:20.110Z,100273.50
2022-09-10T06:59:01.504Z,100248.31
2022-09-10T07:01:43.640Z,100243.78
2022-09-10T07:04:11.116Z,100255.66
2022-09-10T07:06:42.859Z,100260.09
2022-09-10T07:09:15.385Z,100250.53
2022-09-10T07:12:22.414Z,100262.22
2022-09-10T07:14:50.011Z,100249.38
2022-09-10T07:17:23.541Z,100260.69
2022-09-10T07:20:01.513Z,100254.75
2022-09-10T07:22:42.642Z,100268.56
2022-09-10T07:25:17.411Z,100246.84
2022-09-10T07:28:01.466Z,100265.63
2022-09-10T07:30:37.200Z,100255.75
2022-09-10T07:33:08.977Z,100247.84
2022-09-10T07:35:46.601Z,100253.38
2022-09-10T07:38:19.537Z,100261.38
2022-09-10T07:40:52.938Z,100254.84
2022-09-10T07:43:53.285Z,100253.66
2022-09-10T07:46:41.143Z,100266.16
2022-09-10T07:49:11.657Z,100244.66
2022-09-10T07:51:40.729Z,100238.16
2022-09-10T07:54:08.135Z,100243.97
2022-09-10T07:56:44.372Z,100247.94
2022-09-10T07:59:14.209Z,100248.28
2022-09-10T08:01:53.283Z,100242.25
2022-09-10T08:04:21.269Z,100243.69
2022-09-10T08:06:48.748Z,100244.03
2022-09-10T08:09:21.903Z,100248.47
2022-09-10T08:11:55.200Z,100221.00
2022-09-10T08:14:24.393Z,100217.41
2022-09-10T08:16:57.355Z,100208.97
2022-09-10T08:19:26.257Z,100201.06
2022-09-10T08:21:56.077Z,100227.38
2022-09-10T08:24:29.058Z,100215.03
2022-09-10T08:26:56.616Z,100222.25
2022-09-10T08:29:32.593Z,100218.97
2022-09-10T08:32:19.496Z,100206.66
2022-09-10T08:34:46.642Z,100203.78
2022-09-10T08:37:15.848Z,100216.22
2022-09-10T08:39:43.954Z,100187.31
2022-09-10T08:42:29.180Z,100211.56
2022-09-10T08:45:10.164Z,100207.25
2022-09-10T08:47:58.783Z,100201.34
2022-09-10T08:50:51.731Z,100200.69
2022-09-10T08:53:31.478Z,100199.69
2022-09-10T08:56:11.559Z,100191.00
2022-09-10T08:58:47.896Z,100211.22
2022-09-10T09:01:31.734Z,100186.00
2022-09-10T09:04:08.214Z,100186.84
2022-09-10T09:06:48.734Z,100196.50
2022-09-10T09:09:16.810Z,100194.38
2022-09-10T09:12:27.400Z,100197.25
2022-09-10T09:15:20.595Z,100189.41
2022-09-10T09:18:17.509Z,100189.22
2022-09-10T09:20:55.247Z,100187.06
2022-09-10T09:23:25.233Z,100186.56
2022-09-10T09:26:05.427Z,100186.88
2022-09-10T09:28:39.580Z,100186.56
2022-09-10T09:31:43.075Z,100179.25
2022-09-10T09:34:28.506Z,100181.97
2022-09-10T09:36:58.755Z,100162.53
2022-09-10T09:39:45.994Z,100170.78
2022-09-10T09:42:47.167Z,100175.44
2022-09-10T09:45:49.595Z,100177.63
2022-09-10T09:48:22.740Z,100182.00
2022-09-10T09:50:57.336Z,100159.59
2022-09-10T09:53:34.266Z,100142.97
2022-09-10T09:56:23.148Z,100174.94
2022-09-10T09:58:52.574Z,100147.88
2022-09-10T10:01:23.095Z,100140.53
2022-09-10T10:03:59.631Z,100126.63
2022-09-10T10:06:47.179Z,100149.38
2022-09-10T10:09:46.032Z,100143.66
2022-09-10T10:16:37.867Z,100122.66
2022-09-10T10:19:30.010Z,100140.16
2022-09-10T10:21:59.969Z,100138.50
2022-09-10T10:24:35.404Z,100136.84
2022-09-10T10:27:02.689Z,100124.03
2022-09-10T10:29:30.482Z,100140.13
2022-09-10T10:32:05.688Z,100137.94
2022-09-10T10:35:08.216Z,100131.13
2022-09-10T10:37:41.133Z,100117.19
2022-09-10T10:40:37.555Z,100125.38
2022-09-10T10:43:23.418Z,100125.63
2022-09-10T10:46:13.121Z,100127.53
2022-09-10T10:48:45.282Z,100121.28
2022-09-10T10:51:32.203Z,100102.13
2022-09-10T10:54:34.892Z,100101.03
2022-09-10T10:57:22.003Z,100097.72
2022-09-10T11:00:17.103Z,100096.28
2022-09-10T11:03:25.840Z,100093.25
2022-09-10T11:06:08.325Z,100085.31
2022-09-10T11:08:50.965Z,100074.41
2022-09-10T11:11:23.435Z,100086.13
2022-09-10T11:14:38.309Z,100075.47
2022-09-10T11:17:14.297Z,100069.75
2022-09-10T11:20:27.145Z,100071.44
2022-09-10T11:23:07.583Z,100078.84
2022-09-10T11:25:46.820Z,100072.59
2022-09-10T11:28:19.795Z,100046.06
2022-09-10T11:30:53.564Z,100052.63
2022-09-10T11:33:27.747Z,100056.16
2022-09-10T11:36:06.314Z,100055.88
2022-09-10T11:38:48.409Z,100048.50
2022-09-10T11:41:26.828Z,100063.00
2022-09-10T11:44:13.096Z,100053.09
2022-09-10T11:46:50.484Z,100037.22
2022-09-10T11:49:28.377Z,100041.31
2022-09-10T11:51:57.346Z,100031.72
2022-09-10T11:54:34.600Z,100017.56
2022-09-10T11:57:18.730Z,100020.53
2022-09-10T12:00:04.461Z,100029.25
2022-09-10T12:03:13.949Z,100026.94
2022-09-10T12:05:56.123Z,100013.31
2022-09-10T12:08:38.519Z,100036.59
2022-09-10T12:11:30.104Z,100014.91
2022-09-10T12:13:59.154Z,99991.59
2022-09-10T12:16:46.862Z,100015.00
2022-09-10T12:19:37.951Z,100004.88
2022-09-10T12:22:09.396Z,99987.56
2022-09-10T12:24:39.109Z,99998.94
2022-09-10T12:27:07.387Z,99994.28
2022-09-10T12:29:38.348Z,100007.13
2022-09-10T12:32:08.410Z,99996.28
2022-09-10T12:34:37.029Z,100001.78
2022-09-10T12:37:20.015Z,99979.28
2022-09-10T12:39:47.349Z,99985.25
2022-09-10T12:42:27.278Z,99989.09
2022-09-10T12:44:56.356Z,99974.47
2022-09-10T12:47:30.058Z,99974.16
2022-09-10T12:50:05.168Z,99972.66
2022-09-10T12:52:35.630Z,99957.88
2022-09-10T12:55:21.758Z,99961.47
2022-09-10T12:57:59.901Z,99959.44
2022-09-10T13:00:38.389Z,99954.22
2022-09-10T13:03:05.979Z,99952.63
2022-09-10T13:05:52.967Z,99941.03
2022-09-10T13:08:38.291Z,99953.97
2022-09-10T13:11:35.850Z,99945.19
2022-09-10T13:14:06.462Z,99951.91
2022-09-10T13:16:33.412Z,99940.22
2022-09-10T13:19:32.582Z,99939.50
2022-09-10T13:21:59.833Z,99940.16
2022-09-10T13:24:36.348Z,99928.91
2022-09-10T13:27:36.151Z,99916.09
2022-09-10T13:30:12.348Z,99918.72
2022-09-10T13:32:44.467Z,99899.34
2022-09-10T13:35:17.530Z,99912.41
2022-09-10T13:37:55.396Z,99915.97
2022-09-10T13:40:34.813Z,99927.16
2022-09-10T13:43:31.439Z,99912.69
2022-09-10T13:46:20.264Z,99913.78
2022-09-10T13:48:56.767Z,99910.03
2022-09-10T13:51:46.345Z,99912.78
2022-09-10T13:54:34.735Z,99926.59
2022-09-10T13:57:35.804Z,99924.63
2022-09-10T14:00:03.790Z,99911.69
2022-09-10T14:02:48.223Z,99898.66
2022-09-10T14:05:31.858Z,99901.41
2022-09-10T14:08:15.522Z,99907.28
2022-09-10T14:10:53.439Z,99899.72
2022-09-10T14:13:28.482Z,99907.84
2022-09-10T14:16:01.428Z,99873.75
2022-09-10T14:18:38.294Z,99880.31
2022-09-10T14:21:06.234Z,99875.19
2022-09-10T14:23:34.355Z,99891.91
2022-09-10T14:26:15.843Z,99884.19
2022-09-10T14:29:30.808Z,99871.72
2022-09-10T14:31:58.125Z,99878.16
2022-09-10T14:34:26.009Z,99870.00
2022-09-10T14:37:03.417Z,99875.72
2022-09-10T14:39:31.171Z,99850.34
2022-09-10T14:42:40.026Z,99870.25
2022-09-10T14:45:40.758Z,99869.53
2022-09-10T14:48:29.472Z,99867.50
2022-09-10T14:51:16.011Z,99868.59
2022-09-10T14:53:45.256Z,99845.66
2022-09-10T14:56:37.849Z,99863.00
2022-09-10T14:59:21.433Z,99849.84
2022-09-10T15:01:49.333Z,99843.66
2022-09-10T15:04:21.801Z,99843.16
2022-09-10T15:07:11.076Z,99856.91
2022-09-10T15:09:38.334Z,99813.16
2022-09-10T15:12:15.651Z,99824.28
2022-09-10T15:14:42.797Z,99836.78
2022-09-10T15:17:14.199Z,99848.22
2022-09-10T15:19:42.857Z,63711.97
2022-09-10T15:22:30.631Z,63711.97
2022-09-10T15:25:10.507Z,63711.97
2022-09-10T15:27:41.938Z,63711.97
2022-09-10T15:30:09.473Z,63711.97
2022-09-10T15:32:36.578Z,63711.97
2022-09-10T15:35:05.636Z,63711.97
2022-09-10T15:37:33.008Z,63711.97
2022-09-10T15:40:00.269Z,99848.22
2022-09-10T15:42:27.245Z,99843.06
2022-09-10T15:44:54.238Z,99843.06
2022-09-10T15:47:21.366Z,99843.06
2022-09-10T15:49:52.631Z,99841.56
2022-09-10T15:52:20.037Z,99834.81
2022-09-10T15:54:47.087Z,99840.75
2022-09-10T15:57:13.998Z,99838.53
2022-09-10T15:59:40.960Z,99850.00
2022-09-10T16:02:13.246Z,99838.38
2022-09-10T16:04:42.947Z,99833.56
2022-09-10T16:07:11.121Z,99829.91
2022-09-10T16:09:38.264Z,63711.97
2022-09-10T16:12:05.578Z,99831.59
2022-09-10T16:14:32.783Z,63711.97
2022-09-10T16:17:00.972Z,63711.97
2022-09-10T16:19:28.163Z,99832.00
2022-09-10T16:21:58.493Z,99841.19
2022-09-10T16:24:25.702Z,99823.63
2022-09-10T16:26:53.309Z,99843.91
2022-09-10T16:29:20.459Z,82778.06
2022-09-10T16:31:48.281Z,63711.97
2022-09-10T16:34:20.422Z,63711.97
2022-09-10T16:36:51.674Z,63711.97
2022-09-10T16:39:20.151Z,63711.97
2022-09-10T16:41:49.131Z,63711.97
2022-09-10T16:44:17.871Z,63711.97
2022-09-10T16:46:49.957Z,63711.97
2022-09-10T16:49:19.809Z,63711.97
2022-09-10T16:51:51.563Z,99844.44
2022-09-10T16:54:21.026Z,99851.22
2022-09-10T16:56:50.482Z,99835.13
2022-09-10T16:59:23.115Z,99839.97
2022-09-10T17:01:52.245Z,99826.59
2022-09-10T17:04:32.546Z,99839.63
2022-09-10T17:07:08.811Z,99822.38
2022-09-10T17:09:36.198Z,99829.44
2022-09-10T17:12:08.796Z,99813.56
2022-09-10T17:14:36.151Z,99817.09
2022-09-10T17:17:03.833Z,99862.03
2022-09-10T17:19:34.136Z,99841.22
2022-09-10T17:22:05.680Z,99809.84
2022-09-10T17:24:32.903Z,99819.66
2022-09-10T17:27:00.860Z,99819.63
2022-09-10T17:29:28.114Z,99844.91
2022-09-10T17:31:58.730Z,99802.59
2022-09-10T17:34:27.332Z,99813.78
2022-09-10T17:36:54.583Z,99810.13
2022-09-10T17:39:22.056Z,99826.75
2022-09-10T17:41:49.235Z,99821.25
2022-09-10T17:44:16.797Z,99827.97
2022-09-10T17:46:45.168Z,99799.81
2022-09-10T17:49:16.371Z,99814.25
2022-09-10T17:51:44.005Z,99812.63
2022-09-10T17:54:12.021Z,99812.00
2022-09-10T17:56:43.570Z,99799.13
2022-09-10T17:59:25.448Z,99812.19
2022-09-10T18:01:53.050Z,99781.34
2022-09-10T18:04:23.779Z,99800.06
2022-09-10T18:06:52.517Z,99809.09
2022-09-10T18:09:23.695Z,99810.69
2022-09-10T18:11:51.028Z,99820.97
2022-09-10T18:14:19.619Z,99805.75
2022-09-10T18:16:50.085Z,99789.44
2022-09-10T18:19:18.463Z,99804.59
2022-09-10T18:21:49.565Z,99781.69
2022-09-10T18:24:24.691Z,99789.59
2022-09-10T18:26:54.091Z,99791.91
2022-09-10T18:29:22.836Z,99789.19
2022-09-10T18:31:57.312Z,99777.72
2022-09-10T18:34:28.229Z,99794.00
2022-09-10T18:37:00.515Z,99770.81
2022-09-10T18:39:30.632Z,99767.84
2022-09-10T18:42:04.929Z,99753.22
2022-09-10T18:44:37.125Z,99760.59
2022-09-10T18:47:17.711Z,99788.16
2022-09-10T18:49:53.613Z,99769.03
2022-09-10T18:52:21.138Z,99775.66
2022-09-10T18:54:48.506Z,99774.09
2022-09-10T18:57:15.477Z,99776.22
2022-09-10T18:59:45.419Z,99773.63
2022-09-10T19:02:15.625Z,99769.69
2022-09-10T19:05:07.360Z,99776.69
2022-09-10T19:07:30.397Z,99768.22
2022-09-10T19:09:57.659Z,99762.97
2022-09-10T19:12:24.826Z,99773.19
2022-09-10T19:14:51.767Z,99779.25
2022-09-10T19:17:18.992Z,99788.25
2022-09-10T19:19:47.977Z,99765.78
2022-09-10T19:22:16.701Z,99772.19
2022-09-10T19:24:54.436Z,99768.03
2022-09-10T19:27:22.468Z,99769.09
2022-09-10T19:29:50.492Z,99777.94
2022-09-10T19:32:22.276Z,99777.84
2022-09-10T19:34:50.702Z,99769.41
2022-09-10T19:37:20.894Z,99766.13
2022-09-10T19:39:48.226Z,99763.84
2022-09-10T19:42:22.224Z,99767.13
2022-09-10T19:44:49.446Z,99765.09
2022-09-10T19:47:16.367Z,99767.56
2022-09-10T19:49:44.259Z,99770.00
2022-09-10T19:52:11.304Z,99768.63
2022-09-10T19:54:38.943Z,99759.59
2022-09-10T19:57:06.025Z,99766.31
2022-09-10T19:59:35.773Z,99759.19
2022-09-10T20:02:02.863Z,99751.00
2022-09-10T20:04:35.839Z,99773.22
2022-09-10T20:35:17.665Z,99744.19
2022-09-10T20:53:42.949Z,99773.44
2022-09-10T21:05:57.749Z,99775.72
2022-09-10T22:57:21.430Z,99760.78
2022-09-10T23:00:23.696Z,99728.03
2022-09-10T23:04:03.402Z,99726.16
2022-09-10T23:15:15.226Z,99714.78
2022-09-10T23:24:17.797Z,99717.13
2022-09-10T23:45:35.413Z,99710.09
